sensor_id;sensor_type;location;lat;lon;timestamp;pressure;altitude;pressure_sealevel;temperature;humidity
4972;BME280;2501;51.214;6.768;2022-12-08T00:02:00;100843.59;;;3.87;100.00
4972;BME280;2501;51.214;6.768;2022-12-08T00:04:28;100838.09;;;3.78;100.00
4972;BME280;2501;51.214;6.768;2022-12-08T00:07:17;100840.56;;;4.00;100.00
4972;BME280;2501;51.214;6.768;2022-12-08T00:09:57;100836.97;;;3.95;100.00
4972;BME280;2501;51.214;6.768;2022-12-08T00:12:26;100831.13;;;4.02;100.00
4972;BME280;2501;51.214;6.768;2022-12-08T00:14:57;100832.72;;;3.97;100.00
4972;BME280;2501;51.214;6.768;2022-12-08T00:17:25;100824.88;;;3.96;100.00
4972;BME280;2501;51.214;6.768;2022-12-08T00:19:54;100824.81;;;3.94;100.00
4972;BME280;2501;51.214;6.768;2022-12-08T00:22:22;100815.63;;;3.78;100.00
4972;BME280;2501;51.214;6.768;2022-12-08T00:24:50;100822.66;;;3.82;100.00
4972;BME280;2501;51.214;6.768;2022-12-08T00:27:19;100811.00;;;3.95;100.00
4972;BME280;2501;51.214;6.768;2022-12-08T00:29:47;100801.63;;;4.00;100.00
4972;BME280;2501;51.214;6.768;2022-12-08T00:32:18;100811.28;;;4.04;100.00
4972;BME280;2501;51.214;6.768;2022-12-08T00:34:46;100806.09;;;4.04;100.00
4972;BME280;2501;51.214;6.768;2022-12-08T00:37:15;100802.09;;;3.62;100.00
4972;BME280;2501;51.214;6.768;2022-12-08T00:39:43;100804.94;;;3.69;100.00
4972;BME280;2501;51.214;6.768;2022-12-08T00:42:12;100803.94;;;3.66;100.00
4972;BME280;2501;51.214;6.768;2022-12-08T00:44:43;100800.06;;;3.78;100.00
4972;BME280;2501;51.214;6.768;2022-12-08T00:47:13;100788.31;;;3.90;100.00
4972;BME280;2501;51.214;6.768;2022-12-08T00:49:44;100787.34;;;3.86;100.00
4972;BME280;2501;51.214;6.768;2022-12-08T00:52:12;100795.56;;;4.00;100.00
4972;BME280;2501;51.214;6.768;2022-12-08T00:54:41;100785.84;;;3.93;100.00
4972;BME280;2501;51.214;6.768;2022-12-08T00:57:09;100783.69;;;3.81;100.00
4972;BME280;2501;51.214;6.768;2022-12-08T00:59:38;100780.31;;;3.83;100.00
4972;BME280;2501;51.214;6.768;2022-12-08T01:02:06;100782.72;;;3.77;100.00
4972;BME280;2501;51.214;6.768;2022-12-08T01:04:34;100776.41;;;3.95;100.00
4972;BME280;2501;51.214;6.768;2022-12-08T01:07:05;100780.03;;;3.74;100.00
4972;BME280;2501;51.214;6.768;2022-12-08T01:09:34;100777.16;;;3.92;100.00
4972;BME280;2501;51.214;6.768;2022-12-08T01:12:03;100778.50;;;4.06;100.00
4972;BME280;2501;51.214;6.768;2022-12-08T01:14:31;100776.78;;;4.07;100.00
4972;BME280;2501;51.214;6.768;2022-12-08T01:17:00;100769.97;;;4.10;100.00
4972;BME280;2501;51.214;6.768;2022-12-08T01:19:28;100772.47;;;4.07;100.00
4972;BME280;2501;51.214;6.768;2022-12-08T01:21:57;100777.78;;;4.10;99.71
4972;BME280;2501;51.214;6.768;2022-12-08T01:24:28;100778.50;;;4.06;99.48
4972;BME280;2501;51.214;6.768;2022-12-08T01:26:56;100778.16;;;3.96;99.30
4972;BME280;2501;51.214;6.768;2022-12-08T01:29:25;100783.53;;;4.02;99.88
4972;BME280;2501;51.214;6.768;2022-12-08T01:31:54;100779.13;;;3.99;99.79
4972;BME280;2501;51.214;6.768;2022-12-08T01:34:22;100781.19;;;4.09;99.80
4972;BME280;2501;51.214;6.768;2022-12-08T01:36:51;100783.94;;;4.14;99.98
4972;BME280;2501;51.214;6.768;2022-12-08T01:39:19;100774.63;;;4.20;99.17
4972;BME280;2501;51.214;6.768;2022-12-08T01:41:51;100773.47;;;4.11;99.17
4972;BME280;2501;51.214;6.768;2022-12-08T01:44:52;100775.22;;;4.12;99.77
4972;BME280;2501;51.214;6.768;2022-12-08T01:47:22;100777.78;;;4.10;99.39
4972;BME280;2501;51.214;6.768;2022-12-08T01:49:51;100774.16;;;4.32;99.63
4972;BME280;2501;51.214;6.768;2022-12-08T01:52:24;100775.22;;;4.12;99.26
4972;BME280;2501;51.214;6.768;2022-12-08T01:54:56;100770.69;;;4.33;98.84
4972;BME280;2501;51.214;6.768;2022-12-08T01:57:32;100759.47;;;4.34;98.39
4972;BME280;2501;51.214;6.768;2022-12-08T02:00:05;100764.97;;;4.16;98.17
4972;BME280;2501;51.214;6.768;2022-12-08T02:02:38;100764.59;;;4.04;98.55
4972;BME280;2501;51.214;6.768;2022-12-08T02:05:11;100765.03;;;3.91;99.32
4972;BME280;2501;51.214;6.768;2022-12-08T02:07:42;100753.03;;;4.22;99.10
4972;BME280;2501;51.214;6.768;2022-12-08T02:10:13;100752.91;;;4.18;98.81
4972;BME280;2501;51.214;6.768;2022-12-08T02:12:47;100752.66;;;4.38;98.60
4972;BME280;2501;51.214;6.768;2022-12-08T02:15:17;100751.81;;;4.39;98.00
4972;BME280;2501;51.214;6.768;2022-12-08T02:18:01;100753.63;;;4.41;97.38
4972;BME280;2501;51.214;6.768;2022-12-08T02:20:42;100744.22;;;4.45;97.07
4972;BME280;2501;51.214;6.768;2022-12-08T02:23:23;100747.63;;;4.42;97.10
4972;BME280;2501;51.214;6.768;2022-12-08T02:26:15;100744.38;;;4.49;96.68
4972;BME280;2501;51.214;6.768;2022-12-08T02:29:11;100736.66;;;4.24;97.36
4972;BME280;2501;51.214;6.768;2022-12-08T02:31:54;100732.78;;;4.38;97.01
4972;BME280;2501;51.214;6.768;2022-12-08T02:34:29;100730.00;;;4.32;97.06
4972;BME280;2501;51.214;6.768;2022-12-08T02:37:05;100726.63;;;4.08;97.57
4972;BME280;2501;51.214;6.768;2022-12-08T02:39:40;100712.47;;;4.25;98.14
4972;BME280;2501;51.214;6.768;2022-12-08T02:42:15;100714.94;;;4.49;97.89
4972;BME280;2501;51.214;6.768;2022-12-08T02:44:47;100707.19;;;4.52;96.78
4972;BME280;2501;51.214;6.768;2022-12-08T02:47:22;100711.50;;;4.50;96.05
4972;BME280;2501;51.214;6.768;2022-12-08T02:49:54;100702.78;;;4.48;95.72
4972;BME280;2501;51.214;6.768;2022-12-08T02:52:43;100706.81;;;4.38;95.80
4972;BME280;2501;51.214;6.768;2022-12-08T02:55:23;100708.09;;;4.24;96.27
4972;BME280;2501;51.214;6.768;2022-12-08T02:58:10;100703.13;;;4.30;95.85
4972;BME280;2501;51.214;6.768;2022-12-08T03:00:54;100699.75;;;4.34;96.08
4972;BME280;2501;51.214;6.768;2022-12-08T03:03:34;100696.16;;;4.29;96.21
4972;BME280;2501;51.214;6.768;2022-12-08T03:06:15;100683.91;;;4.25;96.43
4972;BME280;2501;51.214;6.768;2022-12-08T03:08:53;100687.59;;;4.33;96.16
4972;BME280;2501;51.214;6.768;2022-12-08T03:11:29;100681.00;;;4.14;96.06
4972;BME280;2501;51.214;6.768;2022-12-08T03:13:59;100687.97;;;3.89;96.77
4972;BME280;2501;51.214;6.768;2022-12-08T03:16:30;100686.03;;;4.10;97.80
4972;BME280;2501;51.214;6.768;2022-12-08T03:19:02;100682.19;;;4.26;97.35
4972;BME280;2501;51.214;6.768;2022-12-08T03:21:38;100666.91;;;4.36;96.13
4972;BME280;2501;51.214;6.768;2022-12-08T03:24:09;100664.22;;;4.32;95.70
4972;BME280;2501;51.214;6.768;2022-12-08T03:26:42;100669.69;;;4.12;95.74
4972;BME280;2501;51.214;6.768;2022-12-08T03:29:13;100667.81;;;4.08;96.06
4972;BME280;2501;51.214;6.768;2022-12-08T03:31:47;100668.13;;;4.19;96.20
4972;BME280;2501;51.214;6.768;2022-12-08T03:34:17;100662.38;;;4.01;96.60
4972;BME280;2501;51.214;6.768;2022-12-08T03:36:48;100654.47;;;4.25;97.33
4972;BME280;2501;51.214;6.768;2022-12-08T03:39:17;100653.19;;;4.10;96.39
4972;BME280;2501;51.214;6.768;2022-12-08T03:41:46;100651.13;;;4.00;96.88
4972;BME280;2501;51.214;6.768;2022-12-08T03:44:14;100651.72;;;4.20;97.19
4972;BME280;2501;51.214;6.768;2022-12-08T03:46:43;100645.81;;;4.24;96.35
4972;BME280;2501;51.214;6.768;2022-12-08T03:49:11;100652.56;;;4.19;96.14
4972;BME280;2501;51.214;6.768;2022-12-08T03:51:42;100648.66;;;4.33;95.69
4972;BME280;2501;51.214;6.768;2022-12-08T03:54:13;100646.09;;;4.35;95.62
4972;BME280;2501;51.214;6.768;2022-12-08T03:56:42;100634.53;;;4.24;95.45
4972;BME280;2501;51.214;6.768;2022-12-08T03:59:10;100631.53;;;4.40;95.18
4972;BME280;2501;51.214;6.768;2022-12-08T04:01:38;100626.50;;;4.44;95.01
4972;BME280;2501;51.214;6.768;2022-12-08T04:04:07;100631.19;;;4.28;95.09
4972;BME280;2501;51.214;6.768;2022-12-08T04:06:35;100631.63;;;4.13;95.45
4972;BME280;2501;51.214;6.768;2022-12-08T04:09:04;100628.03;;;3.81;96.69
4972;BME280;2501;51.214;6.768;2022-12-08T04:11:35;100623.50;;;4.31;97.29
4972;BME280;2501;51.214;6.768;2022-12-08T04:14:03;100614.53;;;3.91;97.20
4972;BME280;2501;51.214;6.768;2022-12-08T04:16:32;100615.72;;;4.31;97.37
4972;BME280;2501;51.214;6.768;2022-12-08T04:19:00;100618.56;;;4.10;96.32
4972;BME280;2501;51.214;6.768;2022-12-08T04:21:29;100610.69;;;4.37;97.16
4972;BME280;2501;51.214;6.768;2022-12-08T04:23:57;100611.88;;;4.48;96.76
4972;BME280;2501;51.214;6.768;2022-12-08T04:26:27;100603.00;;;4.10;96.94
4972;BME280;2501;51.214;6.768;2022-12-08T04:28:58;100602.09;;;4.39;96.64
4972;BME280;2501;51.214;6.768;2022-12-08T04:31:26;100604.59;;;4.36;96.29
4972;BME280;2501;51.214;6.768;2022-12-08T04:33:54;100600.09;;;4.29;96.44
4972;BME280;2501;51.214;6.768;2022-12-08T04:36:23;100598.28;;;4.27;96.53
4972;BME280;2501;51.214;6.768;2022-12-08T04:38:51;100591.16;;;4.19;97.16
4972;BME280;2501;51.214;6.768;2022-12-08T04:41:20;100594.91;;;4.01;98.41
4972;BME280;2501;51.214;6.768;2022-12-08T04:43:48;100593.69;;;4.18;98.84
4972;BME280;2501;51.214;6.768;2022-12-08T04:46:20;100591.03;;;4.16;98.74
4972;BME280;2501;51.214;6.768;2022-12-08T04:48:48;100591.03;;;4.16;98.77
4972;BME280;2501;51.214;6.768;2022-12-08T04:51:17;100588.34;;;4.12;99.15
4972;BME280;2501;51.214;6.768;2022-12-08T04:53:46;100587.81;;;4.24;99.51
4972;BME280;2501;51.214;6.768;2022-12-08T04:56:16;100591.91;;;3.87;99.41
4972;BME280;2501;51.214;6.768;2022-12-08T04:58:45;100587.38;;;4.08;100.00
4972;BME280;2501;51.214;6.768;2022-12-08T05:01:14;100582.38;;;4.16;100.00
4972;BME280;2501;51.214;6.768;2022-12-08T05:03:45;100581.81;;;4.26;100.00
4972;BME280;2501;51.214;6.768;2022-12-08T05:06:13;100583.94;;;4.09;100.00
4972;BME280;2501;51.214;6.768;2022-12-08T05:08:42;100578.13;;;4.18;100.00
4972;BME280;2501;51.214;6.768;2022-12-08T05:11:11;100578.06;;;4.15;100.00
4972;BME280;2501;51.214;6.768;2022-12-08T05:13:40;100580.72;;;4.18;100.00
4972;BME280;2501;51.214;6.768;2022-12-08T05:16:11;100579.78;;;4.14;100.00
4972;BME280;2501;51.214;6.768;2022-12-08T05:18:40;100579.00;;;4.18;100.00
4972;BME280;2501;51.214;6.768;2022-12-08T05:21:12;100585.84;;;4.16;100.00
4972;BME280;2501;51.214;6.768;2022-12-08T05:23:40;100586.03;;;4.23;100.00
4972;BME280;2501;51.214;6.768;2022-12-08T05:26:08;100581.78;;;4.25;100.00
4972;BME280;2501;51.214;6.768;2022-12-08T05:28:37;100578.84;;;4.12;100.00
4972;BME280;2501;51.214;6.768;2022-12-08T05:31:05;100588.16;;;4.36;100.00
4972;BME280;2501;51.214;6.768;2022-12-08T05:33:34;100579.44;;;4.04;100.00
4972;BME280;2501;51.214;6.768;2022-12-08T05:36:02;100577.81;;;4.07;100.00
4972;BME280;2501;51.214;6.768;2022-12-08T05:38:33;100576.41;;;4.18;100.00
4972;BME280;2501;51.214;6.768;2022-12-08T05:41:02;100579.38;;;4.31;100.00
4972;BME280;2501;51.214;6.768;2022-12-08T05:43:30;100567.69;;;4.15;100.00
4972;BME280;2501;51.214;6.768;2022-12-08T05:45:59;100570.81;;;4.05;100.00
4972;BME280;2501;51.214;6.768;2022-12-08T05:48:27;100565.72;;;4.08;100.00
4972;BME280;2501;51.214;6.768;2022-12-08T05:50:56;100563.31;;;4.14;100.00
4972;BME280;2501;51.214;6.768;2022-12-08T05:53:25;100557.84;;;4.05;100.00
4972;BME280;2501;51.214;6.768;2022-12-08T05:55:56;100566.25;;;4.26;100.00
4972;BME280;2501;51.214;6.768;2022-12-08T05:58:25;100562.06;;;4.31;100.00
4972;BME280;2501;51.214;6.768;2022-12-08T06:00:53;100556.56;;;4.20;100.00
4972;BME280;2501;51.214;6.768;2022-12-08T06:03:22;100561.63;;;4.16;100.00
4972;BME280;2501;51.214;6.768;2022-12-08T06:05:50;100562.69;;;4.23;100.00
4972;BME280;2501;51.214;6.768;2022-12-08T06:08:19;100557.53;;;4.24;100.00
4972;BME280;2501;51.214;6.768;2022-12-08T06:10:47;100561.28;;;4.04;100.00
4972;BME280;2501;51.214;6.768;2022-12-08T06:13:19;100556.56;;;4.20;100.00
4972;BME280;2501;51.214;6.768;2022-12-08T06:15:47;100553.31;;;4.28;100.00
4972;BME280;2501;51.214;6.768;2022-12-08T06:18:15;100553.56;;;4.37;99.94
4972;BME280;2501;51.214;6.768;2022-12-08T06:20:44;100551.13;;;4.11;99.60
4972;BME280;2501;51.214;6.768;2022-12-08T06:23:12;100548.56;;;4.13;99.86
4972;BME280;2501;51.214;6.768;2022-12-08T06:25:41;100552.47;;;3.99;100.00
4972;BME280;2501;51.214;6.768;2022-12-08T06:28:09;100555.09;;;4.00;100.00
4972;BME280;2501;51.214;6.768;2022-12-08T06:30:40;100545.78;;;4.07;100.00
4972;BME280;2501;51.214;6.768;2022-12-08T06:33:08;100549.63;;;3.90;100.00
4972;BME280;2501;51.214;6.768;2022-12-08T06:35:37;100546.72;;;4.09;100.00
4972;BME280;2501;51.214;6.768;2022-12-08T06:38:05;100553.81;;;4.16;100.00
4972;BME280;2501;51.214;6.768;2022-12-08T06:40:34;100552.22;;;4.19;100.00
4972;BME280;2501;51.214;6.768;2022-12-08T06:43:02;100554.94;;;4.24;99.96
4972;BME280;2501;51.214;6.768;2022-12-08T06:45:33;100547.25;;;4.27;99.62
4972;BME280;2501;51.214;6.768;2022-12-08T06:48:04;100557.25;;;4.13;99.64
4972;BME280;2501;51.214;6.768;2022-12-08T06:50:33;100548.03;;;3.95;99.95
4972;BME280;2501;51.214;6.768;2022-12-08T06:53:02;100555.78;;;3.93;100.00
4972;BME280;2501;51.214;6.768;2022-12-08T06:55:30;100557.66;;;3.99;100.00
4972;BME280;2501;51.214;6.768;2022-12-08T06:57:59;100555.34;;;3.78;100.00
4972;BME280;2501;51.214;6.768;2022-12-08T07:00:27;100557.44;;;3.91;100.00
4972;BME280;2501;51.214;6.768;2022-12-08T07:02:55;100567.19;;;3.70;100.00
4972;BME280;2501;51.214;6.768;2022-12-08T07:05:26;100555.59;;;3.87;100.00
4972;BME280;2501;51.214;6.768;2022-12-08T07:07:55;100566.03;;;3.89;100.00
4972;BME280;2501;51.214;6.768;2022-12-08T07:10:23;100564.41;;;3.92;100.00
4972;BME280;2501;51.214;6.768;2022-12-08T07:12:52;100565.91;;;3.85;100.00
4972;BME280;2501;51.214;6.768;2022-12-08T07:15:20;100577.03;;;3.80;100.00
4972;BME280;2501;51.214;6.768;2022-12-08T07:17:49;100574.63;;;3.88;100.00
4972;BME280;2501;51.214;6.768;2022-12-08T07:20:17;100578.53;;;3.73;100.00
4972;BME280;2501;51.214;6.768;2022-12-08T07:22:52;100572.88;;;3.87;100.00
4972;BME280;2501;51.214;6.768;2022-12-08T07:25:20;100575.94;;;3.73;100.00
4972;BME280;2501;51.214;6.768;2022-12-08T07:27:49;100582.94;;;3.76;100.00
4972;BME280;2501;51.214;6.768;2022-12-08T07:30:18;100573.69;;;3.85;100.00
4972;BME280;2501;51.214;6.768;2022-12-08T07:32:47;100576.09;;;3.78;100.00
4972;BME280;2501;51.214;6.768;2022-12-08T07:35:15;100580.03;;;3.67;100.00
4972;BME280;2501;51.214;6.768;2022-12-08T07:37:44;100576.16;;;3.81;100.00
4972;BME280;2501;51.214;6.768;2022-12-08T07:40:15;100569.13;;;3.77;100.00
4972;BME280;2501;51.214;6.768;2022-12-08T07:42:44;100572.09;;;3.61;100.00
4972;BME280;2501;51.214;6.768;2022-12-08T07:45:12;100570.13;;;3.54;100.00
4972;BME280;2501;51.214;6.768;2022-12-08T07:47:40;100560.38;;;3.45;100.00
4972;BME280;2501;51.214;6.768;2022-12-08T07:50:09;100568.56;;;3.59;100.00
4972;BME280;2501;51.214;6.768;2022-12-08T07:52:38;100574.44;;;3.53;100.00
4972;BME280;2501;51.214;6.768;2022-12-08T07:55:07;100566.56;;;3.50;100.00
4972;BME280;2501;51.214;6.768;2022-12-08T07:57:38;100568.84;;;3.39;100.00
4972;BME280;2501;51.214;6.768;2022-12-08T08:00:08;100567.16;;;3.41;100.00
4972;BME280;2501;51.214;6.768;2022-12-08T08:02:37;100571.28;;;3.62;100.00
4972;BME280;2501;51.214;6.768;2022-12-08T08:05:07;100572.94;;;3.60;100.00
4972;BME280;2501;51.214;6.768;2022-12-08T08:07:37;100570.09;;;3.52;100.00
4972;BME280;2501;51.214;6.768;2022-12-08T08:10:07;100572.78;;;3.55;100.00
4972;BME280;2501;51.214;6.768;2022-12-08T08:12:38;100572.88;;;3.58;100.00
4972;BME280;2501;51.214;6.768;2022-12-08T08:15:08;100573.81;;;3.60;100.00
4972;BME280;2501;51.214;6.768;2022-12-08T08:17:36;100568.63;;;3.60;100.00
4972;BME280;2501;51.214;6.768;2022-12-08T08:20:06;100571.78;;;3.52;100.00
4972;BME280;2501;51.214;6.768;2022-12-08T08:22:35;100575.56;;;3.61;100.00
4972;BME280;2501;51.214;6.768;2022-12-08T08:25:04;100573.81;;;3.60;100.00
4972;BME280;2501;51.214;6.768;2022-12-08T08:27:33;100564.03;;;3.52;100.00
4972;BME280;2501;51.214;6.768;2022-12-08T08:30:05;100572.53;;;3.47;100.00
4972;BME280;2501;51.214;6.768;2022-12-08T08:32:34;100581.13;;;3.46;100.00
4972;BME280;2501;51.214;6.768;2022-12-08T08:35:04;100575.38;;;3.55;100.00
4972;BME280;2501;51.214;6.768;2022-12-08T08:37:32;100584.31;;;3.65;100.00
4972;BME280;2501;51.214;6.768;2022-12-08T08:40:01;100579.97;;;3.37;100.00
4972;BME280;2501;51.214;6.768;2022-12-08T08:42:29;100580.56;;;3.55;100.00
4972;BME280;2501;51.214;6.768;2022-12-08T08:44:58;100579.94;;;3.64;100.00
4972;BME280;2501;51.214;6.768;2022-12-08T08:47:29;100576.81;;;3.45;100.00
4972;BME280;2501;51.214;6.768;2022-12-08T08:49:57;100574.53;;;3.56;100.00
4972;BME280;2501;51.214;6.768;2022-12-08T08:52:25;100571.34;;;3.65;100.00
4972;BME280;2501;51.214;6.768;2022-12-08T08:54:54;100566.38;;;3.44;100.00
4972;BME280;2501;51.214;6.768;2022-12-08T08:57:22;100566.25;;;3.68;100.00
4972;BME280;2501;51.214;6.768;2022-12-08T08:59:51;100568.72;;;3.63;100.00
4972;BME280;2501;51.214;6.768;2022-12-08T09:02:19;100568.88;;;3.69;100.00
4972;BME280;2501;51.214;6.768;2022-12-08T09:04:51;100567.53;;;3.54;100.00
4972;BME280;2501;51.214;6.768;2022-12-08T09:07:20;100572.38;;;3.70;100.00
4972;BME280;2501;51.214;6.768;2022-12-08T09:09:48;100576.56;;;3.66;100.00
4972;BME280;2501;51.214;6.768;2022-12-08T09:12:17;100577.66;;;3.73;100.00
4972;BME280;2501;51.214;6.768;2022-12-08T09:14:45;100577.34;;;3.64;100.00
4972;BME280;2501;51.214;6.768;2022-12-08T09:17:14;100574.25;;;3.47;100.00
4972;BME280;2501;51.214;6.768;2022-12-08T09:19:42;100574.38;;;3.52;100.00
4972;BME280;2501;51.214;6.768;2022-12-08T09:22:13;100577.50;;;3.68;100.00
4972;BME280;2501;51.214;6.768;2022-12-08T09:24:42;100565.91;;;3.85;100.00
4972;BME280;2501;51.214;6.768;2022-12-08T09:27:10;100572.31;;;3.97;100.00
4972;BME280;2501;51.214;6.768;2022-12-08T09:29:39;100569.44;;;3.88;100.00
4972;BME280;2501;51.214;6.768;2022-12-08T09:32:07;100575.94;;;3.73;100.00
4972;BME280;2501;51.214;6.768;2022-12-08T09:34:35;100577.28;;;3.61;100.00
4972;BME280;2501;51.214;6.768;2022-12-08T09:37:04;100573.81;;;3.60;100.00
4972;BME280;2501;51.214;6.768;2022-12-08T09:39:35;100570.13;;;3.54;100.00
4972;BME280;2501;51.214;6.768;2022-12-08T09:42:05;100578.22;;;3.63;100.00
4972;BME280;2501;51.214;6.768;2022-12-08T09:44:45;100568.34;;;3.79;100.00
4972;BME280;2501;51.214;6.768;2022-12-08T09:47:19;100566.91;;;3.61;100.00
4972;BME280;2501;51.214;6.768;2022-12-08T09:49:53;100569.53;;;3.91;100.00
4972;BME280;2501;51.214;6.768;2022-12-08T09:52:27;100571.13;;;3.57;100.00
4972;BME280;2501;51.214;6.768;2022-12-08T09:55:08;100566.94;;;3.91;100.00
4972;BME280;2501;51.214;6.768;2022-12-08T09:57:38;100560.78;;;3.87;100.00
4972;BME280;2501;51.214;6.768;2022-12-08T10:00:11;100562.25;;;3.77;100.00
4972;BME280;2501;51.214;6.768;2022-12-08T10:02:41;100565.44;;;3.99;99.51
4972;BME280;2501;51.214;6.768;2022-12-08T10:05:13;100559.03;;;4.16;98.70
4972;BME280;2501;51.214;6.768;2022-12-08T10:07:44;100564.75;;;4.04;97.98
4972;BME280;2501;51.214;6.768;2022-12-08T10:10:25;100567.69;;;4.15;97.92
4972;BME280;2501;51.214;6.768;2022-12-08T10:13:02;100556.53;;;3.89;98.32
4972;BME280;2501;51.214;6.768;2022-12-08T10:15:41;100557.00;;;4.06;97.95
4972;BME280;2501;51.214;6.768;2022-12-08T10:18:15;100558.13;;;4.14;97.12
4972;BME280;2501;51.214;6.768;2022-12-08T10:20:45;100549.47;;;4.13;96.86
4972;BME280;2501;51.214;6.768;2022-12-08T10:23:27;100553.19;;;4.23;96.84
4972;BME280;2501;51.214;6.768;2022-12-08T10:26:01;100560.69;;;3.84;97.95
4972;BME280;2501;51.214;6.768;2022-12-08T10:28:32;100550.44;;;4.18;97.23
4972;BME280;2501;51.214;6.768;2022-12-08T10:31:01;100547.66;;;4.11;97.13
4972;BME280;2501;51.214;6.768;2022-12-08T10:33:30;100545.13;;;3.84;97.37
4972;BME280;2501;51.214;6.768;2022-12-08T10:36:00;100541.16;;;4.27;96.75
4972;BME280;2501;51.214;6.768;2022-12-08T10:38:30;100537.66;;;4.25;96.23
4972;BME280;2501;51.214;6.768;2022-12-08T10:41:05;100538.25;;;4.16;95.72
4972;BME280;2501;51.214;6.768;2022-12-08T10:43:36;100532.91;;;4.10;96.52
4972;BME280;2501;51.214;6.768;2022-12-08T10:46:11;100536.16;;;4.03;96.96
4972;BME280;2501;51.214;6.768;2022-12-08T10:48:48;100532.53;;;4.28;96.46
4972;BME280;2501;51.214;6.768;2022-12-08T10:51:23;100534.41;;;4.02;96.74
4972;BME280;2501;51.214;6.768;2022-12-08T10:53:51;100528.38;;;4.34;96.47
4972;BME280;2501;51.214;6.768;2022-12-08T10:56:24;100531.53;;;4.23;97.20
4972;BME280;2501;51.214;6.768;2022-12-08T10:59:12;100526.41;;;4.57;95.76
4972;BME280;2501;51.214;6.768;2022-12-08T11:01:45;100521.69;;;4.42;94.24
4972;BME280;2501;51.214;6.768;2022-12-08T11:04:16;100515.72;;;4.45;94.02
4972;BME280;2501;51.214;6.768;2022-12-08T11:06:46;100511.41;;;4.45;93.80
4972;BME280;2501;51.214;6.768;2022-12-08T11:09:34;100523.00;;;4.27;94.69
4972;BME280;2501;51.214;6.768;2022-12-08T11:12:12;100512.28;;;4.46;94.69
4972;BME280;2501;51.214;6.768;2022-12-08T11:14:47;100519.72;;;4.65;93.70
4972;BME280;2501;51.214;6.768;2022-12-08T11:17:23;100504.63;;;4.52;93.27
4972;BME280;2501;51.214;6.768;2022-12-08T11:19:57;100511.09;;;4.68;93.24
4972;BME280;2501;51.214;6.768;2022-12-08T11:22:29;100504.31;;;4.73;92.49
4972;BME280;2501;51.214;6.768;2022-12-08T11:24:59;100494.22;;;4.85;92.13
4972;BME280;2501;51.214;6.768;2022-12-08T11:27:32;100497.25;;;4.69;91.64
4972;BME280;2501;51.214;6.768;2022-12-08T11:30:05;100488.66;;;4.71;91.45
4972;BME280;2501;51.214;6.768;2022-12-08T11:32:42;100491.13;;;4.65;91.54
4972;BME280;2501;51.214;6.768;2022-12-08T11:35:19;100488.66;;;4.71;91.76
4972;BME280;2501;51.214;6.768;2022-12-08T11:37:48;100485.19;;;4.71;91.70
4972;BME280;2501;51.214;6.768;2022-12-08T11:40:20;100483.81;;;4.85;91.08
4972;BME280;2501;51.214;6.768;2022-12-08T11:42:57;100488.34;;;4.92;90.92
4972;BME280;2501;51.214;6.768;2022-12-08T11:45:31;100492.06;;;5.03;91.46
4972;BME280;2501;51.214;6.768;2022-12-08T11:48:08;100485.59;;;4.87;89.90
4972;BME280;2501;51.214;6.768;2022-12-08T11:50:42;100485.97;;;4.67;90.02
4972;BME280;2501;51.214;6.768;2022-12-08T11:53:16;100478.16;;;4.65;89.97
4972;BME280;2501;51.214;6.768;2022-12-08T11:55:49;100479.19;;;4.73;89.70
4972;BME280;2501;51.214;6.768;2022-12-08T11:58:25;100476.59;;;4.73;89.46
4972;BME280;2501;51.214;6.768;2022-12-08T12:00:55;100481.59;;;4.64;88.98
4972;BME280;2501;51.214;6.768;2022-12-08T12:03:26;100480.91;;;4.38;90.31
4972;BME280;2501;51.214;6.768;2022-12-08T12:06:09;100477.63;;;4.45;90.97
4972;BME280;2501;51.214;6.768;2022-12-08T12:08:51;100472.50;;;4.81;90.36
4972;BME280;2501;51.214;6.768;2022-12-08T12:11:29;100467.50;;;4.90;90.30
4972;BME280;2501;51.214;6.768;2022-12-08T12:14:29;100462.41;;;4.95;88.69
4972;BME280;2501;51.214;6.768;2022-12-08T12:17:01;100468.13;;;4.80;88.34
4972;BME280;2501;51.214;6.768;2022-12-08T12:19:34;100465.25;;;4.70;88.63
4972;BME280;2501;51.214;6.768;2022-12-08T12:22:11;100459.16;;;5.04;89.16
4972;BME280;2501;51.214;6.768;2022-12-08T12:24:44;100451.38;;;5.05;86.96
4972;BME280;2501;51.214;6.768;2022-12-08T12:27:22;100457.38;;;5.03;86.83
4972;BME280;2501;51.214;6.768;2022-12-08T12:29:57;100454.78;;;5.01;87.26
4972;BME280;2501;51.214;6.768;2022-12-08T12:32:39;100460.28;;;4.79;87.41
4972;BME280;2501;51.214;6.768;2022-12-08T12:35:14;100454.47;;;4.89;87.12
4972;BME280;2501;51.214;6.768;2022-12-08T12:37:44;100458.63;;;5.17;85.88
4972;BME280;2501;51.214;6.768;2022-12-08T12:40:17;100454.34;;;5.20;85.61
4972;BME280;2501;51.214;6.768;2022-12-08T12:42:47;100452.00;;;4.94;85.85
4972;BME280;2501;51.214;6.768;2022-12-08T12:45:38;100455.44;;;4.93;85.65
4972;BME280;2501;51.214;6.768;2022-12-08T12:48:27;100460.69;;;4.96;85.43
4972;BME280;2501;51.214;6.768;2022-12-08T12:50:56;100444.59;;;5.10;85.36
4972;BME280;2501;51.214;6.768;2022-12-08T12:53:46;100442.66;;;5.02;84.83
4972;BME280;2501;51.214;6.768;2022-12-08T12:56:46;100448.47;;;4.92;85.12
4972;BME280;2501;51.214;6.768;2022-12-08T12:59:35;100448.25;;;5.20;83.07
4972;BME280;2501;51.214;6.768;2022-12-08T13:02:18;100443.31;;;4.93;82.91
4972;BME280;2501;51.214;6.768;2022-12-08T13:04:57;100441.59;;;4.94;82.62
4972;BME280;2501;51.214;6.768;2022-12-08T13:07:28;100443.31;;;4.93;83.37
4972;BME280;2501;51.214;6.768;2022-12-08T13:10:01;100442.94;;;4.78;83.77
4972;BME280;2501;51.214;6.768;2022-12-08T13:12:30;100438.72;;;4.81;83.71
4972;BME280;2501;51.214;6.768;2022-12-08T13:15:03;100437.34;;;4.97;83.03
4972;BME280;2501;51.214;6.768;2022-12-08T13:17:36;100435.03;;;5.09;82.32
4972;BME280;2501;51.214;6.768;2022-12-08T13:20:06;100431.59;;;5.10;82.45
4972;BME280;2501;51.214;6.768;2022-12-08T13:23:12;100439.50;;;5.15;82.73
4972;BME280;2501;51.214;6.768;2022-12-08T13:26:07;100430.97;;;5.22;81.48
4972;BME280;2501;51.214;6.768;2022-12-08T13:29:04;100435.41;;;4.88;82.24
4972;BME280;2501;51.214;6.768;2022-12-08T13:31:41;100429.31;;;4.88;82.32
4972;BME280;2501;51.214;6.768;2022-12-08T13:34:16;100429.00;;;4.74;83.94
4972;BME280;2501;51.214;6.768;2022-12-08T13:36:51;100432.34;;;4.70;84.72
4972;BME280;2501;51.214;6.768;2022-12-08T13:39:26;100424.94;;;4.85;82.52
4972;BME280;2501;51.214;6.768;2022-12-08T13:41:58;100424.47;;;5.02;82.04
4972;BME280;2501;51.214;6.768;2022-12-08T13:44:34;100412.78;;;4.83;81.95